Flight Track Log - Related Links

Times and Time Zones

All times are in EDT time to prevent confusion due to time zone crossing. See the LYM1725 flight status page for this flight to view local times or setup timezone preferences in your user account.

Time Position Orientation Groundspeed Altitude Reporting Facility
EDT Latitude Longitude Course Direction KTS MPH feet Rate Location/Type
Fri 08:18:12 AM 39.8167 -104.7167 320° Northwest 165 190 8,700  Level Denver TRACON
Fri 08:19:12 AM 39.8500 -104.7500 322° Northwest 165 190 10,700 1,817 Climbing Denver TRACON
Fri 08:20:01 AM 39.8847 -104.7586 349° North 161 185 12,000 1,636 Climbing Denver Center
Fri 08:21:02 AM 39.9322 -104.7683 351° North 170 196 13,700 1,587 Climbing Denver Center
Fri 08:22:02 AM 39.9800 -104.7864 344° North 177 204 15,200 1,289 Climbing Denver Center
Fri 08:23:00 AM 40.0944 -104.9315 320° Northwest  Level Estimated
Fri 08:23:03 AM 40.0306 -104.8022 347° North 186 214 16,300  Level Denver Center
Fri 08:24:04 AM 40.0786 -104.8203 344° North 182 209 17,700 1,041 Climbing Denver Center
Fri 08:25:04 AM 40.1289 -104.8303 351° North 183 211 18,400 793 Climbing Denver Center
Fri 08:26:05 AM 40.1814 -104.8525 342° North 184 212 19,300 787 Climbing Denver Center
Fri 08:27:06 AM 40.2311 -104.8781 339° North 191 220 20,000 295 Climbing Denver Center
Fri 08:28:07 AM 40.2908 -104.8931 349° North 215 247 19,900 -98 Descending Denver Center
Fri 08:29:08 AM 40.3556 -104.9161 345° North 239 275 19,800 50 Descending Denver Center
Fri 08:30:08 AM 40.4161 -104.9472 339° North 233 268 20,000 99 Climbing Denver Center
Fri 08:31:09 AM 40.4708 -105.0014 323° Northwest 248 285 20,000  Level Denver Center
Fri 08:32:10 AM 40.5372 -105.0425 335° Northwest 247 284 20,000 -49 Level Denver Center
Fri 08:33:11 AM 40.6003 -105.0761 338° Northwest 245 282 19,900  Descending Denver Center
Fri 08:34:12 AM 40.6642 -105.1164 334° Northwest 240 276 20,000  Climbing Denver Center
Fri 08:35:13 AM 40.7219 -105.1669 326° Northwest 245 282 19,900 -49 Descending Denver Center
Fri 08:36:14 AM 40.7819 -105.2156 328° Northwest 249 287 19,900  Level Denver Center
Fri 08:37:14 AM 40.8308 -105.2814 314° West 248 285 19,900  Level Denver Center
Fri 08:38:15 AM 40.8811 -105.3467 316° Northwest 252 290 19,900 49 Level Denver Center
Fri 08:39:16 AM 40.9306 -105.4139 314° West 254 292 20,000 98 Climbing Denver Center
Fri 08:40:17 AM 40.9789 -105.4844 312° West 254 292 20,100 -49 Climbing Denver Center
Fri 08:41:18 AM 41.0261 -105.5464 315° West 254 292 19,900 -49 Descending Denver Center
Fri 08:42:19 AM 41.0742 -105.6111 315° West 255 293 20,000  Climbing Denver Center
Fri 08:43:20 AM 41.1286 -105.6856 314° West 253 291 19,900 49 Descending Denver Center
Fri 08:44:21 AM 41.1772 -105.7478 316° Northwest 252 290 20,100  Climbing Denver Center
Fri 08:45:22 AM 41.2308 -105.8239 313° West 251 289 19,900 -49 Descending Denver Center
Fri 08:46:23 AM 41.2778 -105.8900 313° West 256 295 20,000 49 Climbing Denver Center
Fri 08:47:24 AM 41.3253 -105.9544 314° West 255 293 20,000 -49 Level Denver Center
Fri 08:48:25 AM 41.3789 -106.0311 313° West 254 292 19,900  Descending Denver Center
Fri 08:49:26 AM 41.4261 -106.0961 314° West 254 292 20,000  Climbing Denver Center
Fri 08:50:27 AM 41.4744 -106.1617 315° West 257 296 19,900 -49 Descending Denver Center
Fri 08:51:28 AM 41.5303 -106.2381 314° West 257 296 19,900 50 Level Denver Center
Fri 08:52:28 AM 41.5761 -106.3042 313° West 255 293 20,000  Climbing Denver Center
Fri 08:53:29 AM 41.6225 -106.3697 313° West 253 291 19,900 -49 Descending Denver Center
Fri 08:54:30 AM 41.6761 -106.4453 314° West 251 289 19,900  Level Denver Center
Fri 08:55:31 AM 41.7231 -106.5117 313° West 255 293 19,900 49 Level Denver Center
Fri 08:56:32 AM 41.7736 -106.5819 314° West 254 292 20,000  Climbing Denver Center
Fri 08:57:33 AM 41.8203 -106.6467 314° West 253 291 19,900  Descending Denver Center
Fri 08:58:34 AM 41.8761 -106.7217 315° West 255 293 20,000  Climbing Denver Center
Fri 08:59:36 AM 41.9214 -106.7886 312° West 254 292 19,900  Descending Denver Center
Fri 09:00:37 AM 41.9692 -106.8536 315° West 256 295 20,000 49 Climbing Denver Center
Fri 09:01:38 AM 42.0233 -106.9319 313° West 258 297 20,000  Level Denver Center
Fri 09:02:38 AM 42.0703 -106.9981 314° West 257 296 20,000  Level Denver Center
Fri 09:03:39 AM 42.1169 -107.0639 314° West 254 292 20,000  Level Denver Center
Fri 09:04:40 AM 42.1725 -107.1397 315° West 254 292 20,000  Level Denver Center
Fri 09:05:41 AM 42.2206 -107.2064 314° West 259 298 20,000  Level Denver Center
Fri 09:06:42 AM 42.2675 -107.2719 314° West 256 295 20,000  Level Denver Center
Fri 09:07:43 AM 42.3217 -107.3506 313° West 257 296 20,000 -49 Level Denver Center
Fri 09:08:44 AM 42.3683 -107.4186 313° West 259 298 19,900 -52 Descending Denver Center
Fri 09:09:38 AM 42.4147 -107.4889 312° West 261 300 19,900 -470 Level Salt Center
Fri 09:10:39 AM 42.4622 -107.5611 312° West 268 308 19,000 -934 Descending Salt Center
Fri 09:11:40 AM 42.5242 -107.6514 313° West 288 331 18,000 -885 Descending Salt Center
Fri 09:12:41 AM 42.5764 -107.7303 312° West 293 337 17,200 -934 Descending Salt Center
Fri 09:13:42 AM 42.6317 -107.8081 314° West 298 343 16,100 -1,082 Descending Salt Center
Fri 09:14:43 AM 42.7047 -107.8842 323° Northwest 298 343 15,000 -787 Descending Salt Center
Fri 09:15:44 AM 42.7650 -107.9556 319° Northwest 298 343 14,500 -639 Descending Salt Center
Fri 09:16:45 AM 42.8253 -108.0225 321° Northwest 295 339 13,700 -893 Descending Salt Center
Fri 09:17:45 AM 42.8919 -108.1006 319° Northwest 298 343 12,700 -1,000 Descending Salt Center
Fri 09:19:00 AM 42.9349 -108.1995 301° West  Level FlightAware

Login

Don't have an account? Register now (free) for customized features, flight alerts, and more!